Time;durP1;ratioP1;P1;durP2;ratioP2;P2;SDS_P1;SDS_P2;PMS_P1;PMS_P2;Temp;Humidity;BMP_temperature;BMP_pressure;BME280_temperature;BME280_humidity;BME280_pressure;Samples;Min_cycle;Max_cycle;Signal;HPM_P1;HPM_P2
2023/02/09 00:02:01;;;;;;;4.65;3.28;;;;;;;;;;5070860;28;20094;-44
2023/02/09 00:04:27;;;;;;;5.07;3.40;;;;;;;;;;5069107;28;20028;-43
2023/02/09 00:06:53;;;;;;;6.28;3.50;;;;;;;;;;5069914;28;20044;-44
2023/02/09 00:09:19;;;;;;;4.70;3.42;;;;;;;;;;5063769;28;20370;-44
2023/02/09 00:14:31;;;;;;;5.70;3.80;;;;;;;;;;5066742;28;20554;-46
2023/02/09 00:16:57;;;;;;;6.25;3.03;;;;;;;;;;5067454;28;20025;-45
2023/02/09 00:19:23;;;;;;;4.93;3.00;;;;;;;;;;5068740;28;20027;-44
2023/02/09 00:21:49;;;;;;;5.35;3.63;;;;;;;;;;5070542;28;20465;-46
2023/02/09 00:24:15;;;;;;;5.18;3.50;;;;;;;;;;5067375;28;20037;-44
2023/02/09 00:26:41;;;;;;;5.03;3.38;;;;;;;;;;5059729;28;20032;-45
2023/02/09 00:29:07;;;;;;;4.10;3.03;;;;;;;;;;5067267;28;20031;-45
2023/02/09 00:31:34;;;;;;;5.82;3.35;;;;;;;;;;5059678;28;20078;-44
2023/02/09 00:34:01;;;;;;;4.82;3.65;;;;;;;;;;5067437;28;20029;-43
2023/02/09 00:36:27;;;;;;;3.97;2.90;;;;;;;;;;5067385;28;20039;-43
2023/02/09 00:38:53;;;;;;;4.32;3.25;;;;;;;;;;5064685;28;20392;-43
2023/02/09 00:42:04;;;;;;;4.40;2.92;;;;;;;;;;5064929;28;20031;-43
2023/02/09 00:44:05;;;;;;;4.10;3.00;;;;;;;;;;5067393;28;20044;-43
2023/02/09 00:46:31;;;;;;;4.55;3.15;;;;;;;;;;5067871;28;20024;-43
2023/02/09 00:48:57;;;;;;;7.22;3.45;;;;;;;;;;5066943;28;20025;-44
2023/02/09 00:51:23;;;;;;;4.80;2.85;;;;;;;;;;5067366;28;20025;-43
2023/02/09 00:53:49;;;;;;;4.90;3.40;;;;;;;;;;5068797;28;20098;-43
2023/02/09 00:56:15;;;;;;;5.47;4.05;;;;;;;;;;5069357;28;20024;-43
2023/02/09 00:58:41;;;;;;;4.90;3.10;;;;;;;;;;5067592;28;20021;-43
2023/02/09 01:01:12;;;;;;;4.40;3.10;;;;;;;;;;5071388;28;20521;-43
2023/02/09 01:03:38;;;;;;;6.68;3.58;;;;;;;;;;5071745;28;20020;-44
2023/02/09 01:06:04;;;;;;;4.53;3.05;;;;;;;;;;5069319;28;20473;-42
2023/02/09 01:08:30;;;;;;;5.40;3.53;;;;;;;;;;5068679;28;20098;-43
2023/02/09 01:10:56;;;;;;;4.55;3.00;;;;;;;;;;5072873;28;20086;-43
2023/02/09 01:13:22;;;;;;;4.90;3.13;;;;;;;;;;5072700;28;20457;-43
2023/02/09 01:15:48;;;;;;;6.18;3.35;;;;;;;;;;5072002;28;20025;-43
2023/02/09 01:18:14;;;;;;;5.28;3.40;;;;;;;;;;5072157;28;20056;-42
2023/02/09 01:20:40;;;;;;;5.18;3.72;;;;;;;;;;5070421;28;20055;-44
2023/02/09 01:23:06;;;;;;;4.15;3.03;;;;;;;;;;5067425;28;20154;-43
2023/02/09 01:25:32;;;;;;;5.90;3.30;;;;;;;;;;5068013;28;20051;-43
2023/02/09 01:27:58;;;;;;;5.03;4.00;;;;;;;;;;5069194;28;20059;-43
2023/02/09 01:30:24;;;;;;;4.60;3.17;;;;;;;;;;5070755;28;20021;-42
2023/02/09 01:32:50;;;;;;;4.72;3.22;;;;;;;;;;5065217;28;20083;-43
2023/02/09 01:35:17;;;;;;;4.38;3.03;;;;;;;;;;5067284;28;20017;-43
2023/02/09 01:37:43;;;;;;;5.28;3.33;;;;;;;;;;5073647;28;20089;-43
2023/02/09 01:40:09;;;;;;;6.10;3.88;;;;;;;;;;5071574;28;20421;-44
2023/02/09 01:42:35;;;;;;;5.20;3.30;;;;;;;;;;5061432;28;20784;-44
2023/02/09 01:45:21;;;;;;;5.57;3.28;;;;;;;;;;5066139;28;20052;-43
2023/02/09 01:47:54;;;;;;;5.38;3.53;;;;;;;;;;5067977;28;20025;-43
2023/02/09 01:50:21;;;;;;;4.78;3.20;;;;;;;;;;5072679;28;20051;-43
2023/02/09 01:52:48;;;;;;;4.60;3.22;;;;;;;;;;5065121;28;20013;-43
2023/02/09 01:55:15;;;;;;;3.95;2.85;;;;;;;;;;5059802;28;20021;-43
2023/02/09 01:57:43;;;;;;;4.13;3.30;;;;;;;;;;5067477;28;20021;-43
2023/02/09 02:00:11;;;;;;;4.30;3.08;;;;;;;;;;5072832;28;20025;-43
2023/02/09 02:02:37;;;;;;;5.68;4.10;;;;;;;;;;5064440;28;20028;-43
2023/02/09 02:05:05;;;;;;;4.90;3.70;;;;;;;;;;5072769;28;20028;-43
2023/02/09 02:07:35;;;;;;;5.07;2.92;;;;;;;;;;5072844;28;20070;-43
2023/02/09 02:10:02;;;;;;;4.60;3.40;;;;;;;;;;5050889;28;20112;-43
2023/02/09 02:12:28;;;;;;;4.88;3.42;;;;;;;;;;5040567;28;20112;-43
2023/02/09 02:14:54;;;;;;;5.22;3.55;;;;;;;;;;5044290;28;20506;-43
2023/02/09 02:17:39;;;;;;;6.25;3.80;;;;;;;;;;5040350;28;20057;-43
2023/02/09 02:20:19;;;;;;;5.32;3.90;;;;;;;;;;5043280;28;20363;-43
2023/02/09 02:22:53;;;;;;;4.82;3.60;;;;;;;;;;5041818;28;20425;-43
2023/02/09 02:25:39;;;;;;;5.88;3.50;;;;;;;;;;5045422;28;20108;-43
2023/02/09 02:28:23;;;;;;;3.85;2.83;;;;;;;;;;5005827;28;20043;-43
2023/02/09 02:30:58;;;;;;;5.13;3.65;;;;;;;;;;5047036;28;20037;-45
2023/02/09 02:33:44;;;;;;;5.13;3.33;;;;;;;;;;5035851;28;20037;-44
2023/02/09 02:36:22;;;;;;;5.78;3.80;;;;;;;;;;5052173;28;20033;-43
2023/02/09 02:38:53;;;;;;;5.90;3.97;;;;;;;;;;5049152;28;20036;-43
2023/02/09 02:41:19;;;;;;;5.93;3.20;;;;;;;;;;5051982;28;20033;-44
2023/02/09 02:43:54;;;;;;;4.95;3.13;;;;;;;;;;5049654;28;20029;-43
2023/02/09 02:46:25;;;;;;;5.40;3.55;;;;;;;;;;5048915;28;20402;-43
2023/02/09 02:49:01;;;;;;;4.57;3.30;;;;;;;;;;5041337;28;20025;-43
2023/02/09 02:51:29;;;;;;;5.55;3.58;;;;;;;;;;5042028;28;20100;-43
2023/02/09 02:53:56;;;;;;;4.53;3.00;;;;;;;;;;5045721;28;20024;-46
2023/02/09 02:56:42;;;;;;;4.50;3.50;;;;;;;;;;5051705;28;20021;-44
2023/02/09 02:59:12;;;;;;;4.70;3.38;;;;;;;;;;5052851;28;20024;-45
2023/02/09 03:01:40;;;;;;;4.53;3.60;;;;;;;;;;5052746;28;20104;-43
2023/02/09 03:04:06;;;;;;;4.43;3.33;;;;;;;;;;5052138;28;20104;-43
2023/02/09 03:06:33;;;;;;;5.82;3.53;;;;;;;;;;5051641;28;20693;-43
2023/02/09 03:08:59;;;;;;;4.18;3.50;;;;;;;;;;5056137;28;20080;-45
2023/02/09 03:11:30;;;;;;;4.50;3.40;;;;;;;;;;5071977;28;20354;-43
2023/02/09 03:14:14;;;;;;;5.65;3.72;;;;;;;;;;5072633;28;20031;-43
2023/02/09 03:20:07;;;;;;;5.57;3.50;;;;;;;;;;5067147;28;20409;-48
2023/02/09 03:22:38;;;;;;;5.20;3.97;;;;;;;;;;5069842;28;20108;-43
2023/02/09 03:25:09;;;;;;;5.07;3.40;;;;;;;;;;5062152;28;20063;-44
2023/02/09 03:27:38;;;;;;;4.93;3.30;;;;;;;;;;5069202;28;20122;-43
2023/02/09 03:30:05;;;;;;;5.00;3.45;;;;;;;;;;5071683;28;20470;-45
2023/02/09 03:32:32;;;;;;;4.13;3.08;;;;;;;;;;5065162;28;20036;-44
2023/02/09 03:34:58;;;;;;;7.18;4.68;;;;;;;;;;5071698;28;20040;-43
2023/02/09 03:37:24;;;;;;;5.15;3.10;;;;;;;;;;5070857;28;20025;-43
2023/02/09 03:39:50;;;;;;;6.07;3.85;;;;;;;;;;5071198;28;20043;-43
2023/02/09 03:42:16;;;;;;;5.47;3.58;;;;;;;;;;5068351;28;20029;-43
2023/02/09 03:44:42;;;;;;;5.47;3.47;;;;;;;;;;5065862;28;20029;-43
2023/02/09 03:47:09;;;;;;;5.20;3.72;;;;;;;;;;5065355;28;20039;-43
2023/02/09 03:49:40;;;;;;;4.65;3.45;;;;;;;;;;5064578;28;20024;-43
2023/02/09 03:52:07;;;;;;;5.05;3.58;;;;;;;;;;5071601;28;20047;-44
2023/02/09 03:54:34;;;;;;;4.85;3.53;;;;;;;;;;5066011;28;20116;-43
2023/02/09 03:57:00;;;;;;;4.82;3.10;;;;;;;;;;5071299;28;20450;-43
2023/02/09 03:59:26;;;;;;;5.15;3.75;;;;;;;;;;5070162;28;20042;-44
2023/02/09 04:01:56;;;;;;;5.30;3.35;;;;;;;;;;5058000;28;20100;-44
2023/02/09 04:04:22;;;;;;;4.47;3.33;;;;;;;;;;5056319;28;20547;-43
2023/02/09 04:06:49;;;;;;;4.35;3.47;;;;;;;;;;5048205;28;20447;-44
2023/02/09 04:09:15;;;;;;;5.18;3.60;;;;;;;;;;5058149;28;20128;-43
2023/02/09 04:11:41;;;;;;;5.10;3.40;;;;;;;;;;5037919;28;20092;-44
2023/02/09 04:14:10;;;;;;;4.85;3.58;;;;;;;;;;5045207;28;20037;-43
2023/02/09 04:16:36;;;;;;;4.65;3.20;;;;;;;;;;5049753;28;20036;-43
2023/02/09 04:19:03;;;;;;;5.65;3.92;;;;;;;;;;5048741;28;20025;-45
2023/02/09 04:21:29;;;;;;;5.40;3.10;;;;;;;;;;5044082;28;20041;-45
2023/02/09 04:23:55;;;;;;;5.65;4.07;;;;;;;;;;5043883;28;20032;-43
2023/02/09 04:26:21;;;;;;;4.47;3.25;;;;;;;;;;5050119;28;20075;-43
2023/02/09 04:28:47;;;;;;;4.47;3.53;;;;;;;;;;5048839;28;20476;-43
2023/02/09 04:31:13;;;;;;;5.03;3.40;;;;;;;;;;5050859;28;20025;-44
2023/02/09 04:33:39;;;;;;;4.25;3.25;;;;;;;;;;5041244;28;20479;-43
2023/02/09 04:36:05;;;;;;;5.20;3.22;;;;;;;;;;5050138;28;20053;-43
2023/02/09 04:38:31;;;;;;;5.95;3.58;;;;;;;;;;5036558;28;20114;-45
2023/02/09 04:40:58;;;;;;;5.30;3.55;;;;;;;;;;5050204;28;20413;-44
2023/02/09 04:43:24;;;;;;;6.22;3.58;;;;;;;;;;5043252;28;20033;-45
2023/02/09 04:45:50;;;;;;;6.00;3.92;;;;;;;;;;5049337;28;20436;-43
2023/02/09 04:48:18;;;;;;;4.32;3.40;;;;;;;;;;5046669;28;20037;-43
2023/02/09 04:50:44;;;;;;;4.72;3.35;;;;;;;;;;5049127;28;20037;-44
2023/02/09 04:53:10;;;;;;;6.18;3.80;;;;;;;;;;5041652;28;20457;-43
2023/02/09 04:55:37;;;;;;;4.40;3.30;;;;;;;;;;5048582;28;20021;-43
2023/02/09 05:00:48;;;;;;;5.43;3.75;;;;;;;;;;5043162;28;20445;-44
2023/02/09 05:03:14;;;;;;;4.82;3.72;;;;;;;;;;5050266;28;20052;-43
2023/02/09 05:05:40;;;;;;;5.15;3.88;;;;;;;;;;5050848;28;20437;-43
2023/02/09 05:08:07;;;;;;;5.68;4.05;;;;;;;;;;5051124;28;20083;-44
2023/02/09 05:10:33;;;;;;;6.40;3.20;;;;;;;;;;5067160;28;20071;-44
2023/02/09 05:12:59;;;;;;;4.60;3.53;;;;;;;;;;5051314;28;20431;-43
2023/02/09 05:15:25;;;;;;;4.78;3.45;;;;;;;;;;5066569;28;20033;-43
2023/02/09 05:17:51;;;;;;;5.07;3.88;;;;;;;;;;5064471;28;20040;-44
2023/02/09 05:20:17;;;;;;;5.75;3.80;;;;;;;;;;5068361;28;20096;-43
2023/02/09 05:22:43;;;;;;;5.30;3.30;;;;;;;;;;5060774;28;20469;-44
2023/02/09 05:25:09;;;;;;;5.35;4.00;;;;;;;;;;5060318;28;20122;-43
2023/02/09 05:27:35;;;;;;;5.15;3.55;;;;;;;;;;5066555;28;20527;-43
2023/02/09 05:30:01;;;;;;;6.40;4.03;;;;;;;;;;5063497;28;20032;-45
2023/02/09 05:32:27;;;;;;;5.25;3.65;;;;;;;;;;5069252;28;20033;-43
2023/02/09 05:34:53;;;;;;;5.45;3.42;;;;;;;;;;5065531;28;20024;-44
2023/02/09 05:37:19;;;;;;;5.78;4.32;;;;;;;;;;5057437;28;20024;-44
2023/02/09 05:39:45;;;;;;;4.90;3.60;;;;;;;;;;5069399;28;20056;-45
2023/02/09 05:42:14;;;;;;;5.15;3.55;;;;;;;;;;5069991;28;20374;-44
2023/02/09 05:44:40;;;;;;;4.55;3.20;;;;;;;;;;5067903;28;20025;-44
2023/02/09 05:47:06;;;;;;;5.40;3.60;;;;;;;;;;5066387;28;20136;-43
2023/02/09 05:49:32;;;;;;;4.78;3.28;;;;;;;;;;5070591;28;20086;-43
2023/02/09 05:51:57;;;;;;;4.95;3.88;;;;;;;;;;5073971;28;20480;-44
2023/02/09 05:54:23;;;;;;;5.25;3.97;;;;;;;;;;5065965;28;20108;-43
2023/02/09 05:56:49;;;;;;;6.88;3.60;;;;;;;;;;5064789;28;20021;-43
2023/02/09 05:59:15;;;;;;;4.82;3.47;;;;;;;;;;5072400;28;20481;-43
2023/02/09 06:01:41;;;;;;;4.88;3.53;;;;;;;;;;5069150;28;20044;-43
2023/02/09 06:04:08;;;;;;;4.05;3.33;;;;;;;;;;5071111;28;20051;-43
2023/02/09 06:06:34;;;;;;;6.75;3.78;;;;;;;;;;5072173;28;20693;-43
2023/02/09 06:09:00;;;;;;;4.95;4.00;;;;;;;;;;5065398;28;20080;-43
2023/02/09 06:11:26;;;;;;;4.90;3.47;;;;;;;;;;5044090;28;20116;-43
2023/02/09 06:13:52;;;;;;;4.75;3.45;;;;;;;;;;5045928;28;20064;-43
2023/02/09 06:16:18;;;;;;;6.15;4.05;;;;;;;;;;5046846;28;20492;-43
2023/02/09 06:18:44;;;;;;;5.82;4.28;;;;;;;;;;5021117;28;20052;-44
2023/02/09 06:21:11;;;;;;;5.38;3.30;;;;;;;;;;5052231;28;20021;-43
2023/02/09 06:23:37;;;;;;;4.63;3.40;;;;;;;;;;5048716;28;20032;-44
2023/02/09 06:26:10;;;;;;;5.25;3.78;;;;;;;;;;5036797;28;20063;-48
2023/02/09 06:28:36;;;;;;;6.13;4.07;;;;;;;;;;5036292;28;20034;-43
2023/02/09 06:31:03;;;;;;;4.80;3.10;;;;;;;;;;5033366;28;20041;-43
2023/02/09 06:33:29;;;;;;;4.90;3.40;;;;;;;;;;5046104;28;20025;-43
2023/02/09 06:35:55;;;;;;;6.43;3.75;;;;;;;;;;5040434;28;20017;-44
2023/02/09 06:38:21;;;;;;;6.47;3.72;;;;;;;;;;5046143;28;20467;-44
2023/02/09 06:40:47;;;;;;;7.25;4.35;;;;;;;;;;5051023;28;20359;-44
2023/02/09 06:43:13;;;;;;;5.50;3.40;;;;;;;;;;5052649;28;20135;-43
2023/02/09 06:45:39;;;;;;;7.57;3.70;;;;;;;;;;5046869;28;20462;-43
2023/02/09 06:48:06;;;;;;;5.82;3.40;;;;;;;;;;5044901;28;20028;-45
2023/02/09 06:50:32;;;;;;;7.45;4.22;;;;;;;;;;5038137;28;20044;-43
2023/02/09 06:52:58;;;;;;;6.20;3.60;;;;;;;;;;5049260;28;20494;-44
2023/02/09 06:55:25;;;;;;;5.25;2.90;;;;;;;;;;5051636;28;20516;-44
2023/02/09 06:57:50;;;;;;;4.63;3.47;;;;;;;;;;5039642;28;20037;-45
2023/02/09 07:00:17;;;;;;;6.30;3.53;;;;;;;;;;5050833;28;20029;-44
2023/02/09 07:02:44;;;;;;;8.95;4.43;;;;;;;;;;5052896;28;20068;-45
2023/02/09 07:05:10;;;;;;;5.85;3.63;;;;;;;;;;5052638;28;20017;-45
2023/02/09 07:07:37;;;;;;;7.32;3.63;;;;;;;;;;5051862;28;20013;-46
2023/02/09 07:10:03;;;;;;;9.13;3.92;;;;;;;;;;5055792;28;20110;-45
2023/02/09 07:12:29;;;;;;;5.90;3.92;;;;;;;;;;5051922;28;20035;-46
2023/02/09 07:14:55;;;;;;;7.97;3.60;;;;;;;;;;5051991;28;20017;-43
2023/02/09 07:17:21;;;;;;;5.32;3.25;;;;;;;;;;5048659;28;20021;-44
2023/02/09 07:19:47;;;;;;;6.00;3.70;;;;;;;;;;5050531;28;20135;-43
2023/02/09 07:22:13;;;;;;;7.63;3.38;;;;;;;;;;5048818;28;20108;-42
2023/02/09 07:24:39;;;;;;;5.75;3.53;;;;;;;;;;5046900;28;20029;-43
2023/02/09 07:27:06;;;;;;;6.55;3.42;;;;;;;;;;5049991;28;20021;-44
2023/02/09 07:29:32;;;;;;;5.22;3.45;;;;;;;;;;5047634;28;20078;-43
2023/02/09 07:31:58;;;;;;;6.70;3.47;;;;;;;;;;5045472;28;20025;-43
2023/02/09 07:34:24;;;;;;;6.43;4.40;;;;;;;;;;5041216;28;20467;-43
2023/02/09 07:36:50;;;;;;;6.00;3.83;;;;;;;;;;5043990;28;20107;-43
2023/02/09 07:39:16;;;;;;;7.03;3.80;;;;;;;;;;5051052;28;20492;-43
2023/02/09 07:41:42;;;;;;;8.60;4.57;;;;;;;;;;5045456;28;20212;-43
2023/02/09 07:44:09;;;;;;;6.20;4.40;;;;;;;;;;5046958;28;20111;-44
2023/02/09 07:46:35;;;;;;;5.95;3.85;;;;;;;;;;5045799;28;20538;-43
2023/02/09 07:49:01;;;;;;;6.00;3.58;;;;;;;;;;5044896;28;20025;-43
2023/02/09 07:51:27;;;;;;;5.15;3.58;;;;;;;;;;5030235;28;20030;-43
2023/02/09 07:53:56;;;;;;;5.95;3.63;;;;;;;;;;5047217;28;20037;-44
2023/02/09 07:56:23;;;;;;;5.60;4.38;;;;;;;;;;5050347;28;20025;-46
2023/02/09 07:58:49;;;;;;;5.57;3.53;;;;;;;;;;5040274;28;20521;-44
2023/02/09 08:01:18;;;;;;;5.75;3.55;;;;;;;;;;5047501;28;20103;-43
2023/02/09 08:03:45;;;;;;;7.22;4.13;;;;;;;;;;5051766;28;20040;-44
2023/02/09 08:06:20;;;;;;;7.00;4.20;;;;;;;;;;5048298;28;20033;-44
2023/02/09 08:08:47;;;;;;;6.53;4.03;;;;;;;;;;5053393;28;20024;-43
2023/02/09 08:11:15;;;;;;;6.80;4.00;;;;;;;;;;5070043;28;20043;-43
2023/02/09 08:13:41;;;;;;;5.93;3.90;;;;;;;;;;5070207;28;20432;-44
2023/02/09 08:16:12;;;;;;;5.53;4.05;;;;;;;;;;5066322;28;20025;-41
2023/02/09 08:18:41;;;;;;;6.97;3.87;;;;;;;;;;5059412;28;20029;-44
2023/02/09 08:21:09;;;;;;;4.70;3.53;;;;;;;;;;5068879;28;20033;-43
2023/02/09 08:23:35;;;;;;;6.15;4.13;;;;;;;;;;5063021;28;20170;-43
2023/02/09 08:26:05;;;;;;;6.90;3.88;;;;;;;;;;5067980;28;20039;-43
2023/02/09 08:28:31;;;;;;;8.82;5.70;;;;;;;;;;5061904;28;20101;-44
2023/02/09 08:30:57;;;;;;;5.43;4.50;;;;;;;;;;5060928;28;20141;-43
2023/02/09 08:33:23;;;;;;;6.78;4.47;;;;;;;;;;5068763;28;20115;-44
2023/02/09 08:35:52;;;;;;;7.95;4.20;;;;;;;;;;5071347;28;20020;-44
2023/02/09 08:38:19;;;;;;;5.03;3.60;;;;;;;;;;5070024;28;20037;-44
2023/02/09 08:40:45;;;;;;;8.30;5.60;;;;;;;;;;5065966;28;20025;-44
2023/02/09 08:43:12;;;;;;;6.45;4.35;;;;;;;;;;5061700;28;20116;-45
2023/02/09 08:45:38;;;;;;;5.60;3.47;;;;;;;;;;5057491;28;20029;-44
2023/02/09 08:48:10;;;;;;;5.55;3.85;;;;;;;;;;5059778;28;20393;-43
2023/02/09 08:50:36;;;;;;;;;;;;;;;;;;5062465;28;20108;-43
2023/02/09 08:53:02;;;;;;;7.03;4.05;;;;;;;;;;5070203;28;20130;-44
2023/02/09 08:55:29;;;;;;;5.90;3.80;;;;;;;;;;5069113;28;20021;-44
2023/02/09 08:57:55;;;;;;;12.18;4.22;;;;;;;;;;5063005;28;20021;-43
2023/02/09 09:00:21;;;;;;;5.47;4.00;;;;;;;;;;5059639;28;20047;-43
2023/02/09 09:02:47;;;;;;;5.68;3.92;;;;;;;;;;5069396;28;20040;-42
2023/02/09 09:05:13;;;;;;;5.38;3.85;;;;;;;;;;5050368;28;20036;-43
2023/02/09 09:07:39;;;;;;;5.07;3.60;;;;;;;;;;5068743;28;20048;-43
2023/02/09 09:10:07;;;;;;;7.60;3.67;;;;;;;;;;5054115;28;20053;-43
2023/02/09 09:12:33;;;;;;;6.60;4.00;;;;;;;;;;5049131;28;20025;-43
2023/02/09 09:14:59;;;;;;;6.20;4.32;;;;;;;;;;5045043;28;20036;-43
2023/02/09 09:17:25;;;;;;;6.05;3.58;;;;;;;;;;5038944;28;20029;-43
2023/02/09 09:19:55;;;;;;;5.47;4.13;;;;;;;;;;5051821;28;20136;-43
2023/02/09 09:22:22;;;;;;;5.75;3.95;;;;;;;;;;5043167;28;20025;-44
2023/02/09 09:24:48;;;;;;;7.20;4.10;;;;;;;;;;5046603;28;20025;-43
2023/02/09 09:27:14;;;;;;;6.65;4.00;;;;;;;;;;5053161;28;20032;-43
2023/02/09 09:29:40;;;;;;;8.02;3.90;;;;;;;;;;5053831;28;20482;-44
2023/02/09 09:32:06;;;;;;;9.02;4.47;;;;;;;;;;5048253;28;20037;-43
2023/02/09 09:34:33;;;;;;;5.90;4.10;;;;;;;;;;5052440;28;20025;-43
2023/02/09 09:36:59;;;;;;;7.32;4.75;;;;;;;;;;5040777;28;20065;-43
2023/02/09 09:39:25;;;;;;;6.72;4.45;;;;;;;;;;5051133;28;20056;-43
2023/02/09 09:41:54;;;;;;;7.00;3.83;;;;;;;;;;5052853;28;20055;-43
2023/02/09 09:44:47;;;;;;;7.15;4.57;;;;;;;;;;5050739;28;20037;-43
2023/02/09 09:47:13;;;;;;;;;;;;;;;;;;5041071;28;20127;-44
2023/02/09 09:49:39;;;;;;;4.95;3.40;;;;;;;;;;5045151;28;20334;-43
2023/02/09 09:52:08;;;;;;;6.18;4.28;;;;;;;;;;5051814;28;20033;-43
2023/02/09 09:54:35;;;;;;;6.65;4.00;;;;;;;;;;5052384;28;20262;-43
2023/02/09 09:57:01;;;;;;;4.95;3.63;;;;;;;;;;5053220;28;20028;-43
2023/02/09 09:59:37;;;;;;;4.63;3.70;;;;;;;;;;5051639;28;20038;-44
2023/02/09 10:02:16;;;;;;;5.03;3.95;;;;;;;;;;5053351;28;20092;-45
2023/02/09 10:04:42;;;;;;;7.78;4.82;;;;;;;;;;5049468;28;20039;-43
2023/02/09 10:07:13;;;;;;;6.53;4.55;;;;;;;;;;5049181;28;20025;-43
2023/02/09 10:09:45;;;;;;;5.95;4.10;;;;;;;;;;5053781;28;20119;-43
2023/02/09 10:12:16;;;;;;;5.57;3.95;;;;;;;;;;5063585;28;20063;-43
2023/02/09 10:14:42;;;;;;;5.33;3.57;;;;;;;;;;5069811;28;20028;-43
2023/02/09 10:17:08;;;;;;;6.57;4.40;;;;;;;;;;5073032;28;20024;-43
2023/02/09 10:19:34;;;;;;;6.00;3.72;;;;;;;;;;5071126;28;20032;-43
2023/02/09 10:22:00;;;;;;;6.47;4.20;;;;;;;;;;5072198;28;20016;-43
2023/02/09 10:24:26;;;;;;;6.63;4.57;;;;;;;;;;5066262;28;20130;-44
2023/02/09 10:27:06;;;;;;;6.40;4.03;;;;;;;;;;5073137;28;20044;-44
2023/02/09 10:29:34;;;;;;;6.75;3.78;;;;;;;;;;5071009;28;20619;-43
2023/02/09 10:32:18;;;;;;;7.82;4.32;;;;;;;;;;5071850;28;20354;-44
2023/02/09 10:34:49;;;;;;;6.72;4.18;;;;;;;;;;5070732;28;20031;-45
2023/02/09 10:37:14;;;;;;;5.53;3.75;;;;;;;;;;5070171;28;20032;-43
2023/02/09 10:39:40;;;;;;;7.22;4.30;;;;;;;;;;5066348;28;20044;-45
2023/02/09 10:42:18;;;;;;;5.57;4.25;;;;;;;;;;5072148;28;20021;-44
2023/02/09 10:45:07;;;;;;;5.32;3.85;;;;;;;;;;5072055;28;20524;-43
2023/02/09 10:47:33;;;;;;;5.43;3.78;;;;;;;;;;5031878;28;20036;-43
2023/02/09 10:50:01;;;;;;;6.13;4.47;;;;;;;;;;5063507;28;20104;-43
2023/02/09 10:52:32;;;;;;;5.40;3.83;;;;;;;;;;5071897;28;20021;-43
2023/02/09 10:55:00;;;;;;;7.85;4.28;;;;;;;;;;5071606;28;20415;-43
2023/02/09 10:57:27;;;;;;;6.45;4.18;;;;;;;;;;5069504;28;20052;-44
2023/02/09 10:59:55;;;;;;;5.93;3.80;;;;;;;;;;5071199;28;20405;-43
2023/02/09 11:02:35;;;;;;;6.75;4.63;;;;;;;;;;5067153;28;20055;-44
2023/02/09 11:05:02;;;;;;;7.43;4.32;;;;;;;;;;5069883;28;20025;-44
2023/02/09 11:07:33;;;;;;;5.07;3.70;;;;;;;;;;5053073;28;20476;-43
2023/02/09 11:09:59;;;;;;;6.13;4.00;;;;;;;;;;5072855;28;20123;-43
2023/02/09 11:12:27;;;;;;;6.07;4.18;;;;;;;;;;5066725;28;20032;-43
2023/02/09 11:14:54;;;;;;;6.38;3.83;;;;;;;;;;5069301;28;20028;-43
2023/02/09 11:17:23;;;;;;;5.70;4.07;;;;;;;;;;5071395;28;20021;-44
2023/02/09 11:19:52;;;;;;;6.43;4.38;;;;;;;;;;5070745;28;20031;-43
2023/02/09 11:22:30;;;;;;;6.65;4.40;;;;;;;;;;5069286;28;20359;-43
2023/02/09 11:25:00;;;;;;;5.80;4.43;;;;;;;;;;5071267;28;20136;-45
2023/02/09 11:27:44;;;;;;;5.93;3.70;;;;;;;;;;5070476;28;20025;-43
2023/02/09 11:30:13;;;;;;;5.28;3.78;;;;;;;;;;5055039;28;20024;-44
2023/02/09 11:33:06;;;;;;;4.82;3.55;;;;;;;;;;5059686;28;20043;-43
2023/02/09 11:35:58;;;;;;;5.13;3.60;;;;;;;;;;5029101;28;20040;-43
2023/02/09 11:38:35;;;;;;;6.35;4.85;;;;;;;;;;5055851;28;20035;-43
2023/02/09 11:42:42;;;;;;;5.88;4.00;;;;;;;;;;5058766;28;20055;-45
2023/02/09 11:43:50;;;;;;;6.53;4.20;;;;;;;;;;5058680;28;20036;-42
2023/02/09 11:46:18;;;;;;;5.57;4.28;;;;;;;;;;5055125;28;20025;-43
2023/02/09 11:48:46;;;;;;;5.55;4.10;;;;;;;;;;5061061;28;20028;-44
2023/02/09 11:51:18;;;;;;;6.10;3.67;;;;;;;;;;5055562;28;20056;-43
2023/02/09 11:54:03;;;;;;;6.00;3.83;;;;;;;;;;5061803;28;20033;-44
2023/02/09 11:56:30;;;;;;;6.00;4.10;;;;;;;;;;5066023;28;20017;-43
2023/02/09 11:58:56;;;;;;;5.47;3.90;;;;;;;;;;5070740;28;20060;-43
2023/02/09 12:01:35;;;;;;;6.60;3.80;;;;;;;;;;5061944;28;20083;-43
2023/02/09 12:04:16;;;;;;;6.00;4.50;;;;;;;;;;5069743;28;20380;-43
2023/02/09 12:07:02;;;;;;;6.07;4.00;;;;;;;;;;5069330;28;20063;-43
2023/02/09 12:09:31;;;;;;;5.90;3.95;;;;;;;;;;5042323;28;20444;-41
2023/02/09 12:12:07;;;;;;;6.03;3.90;;;;;;;;;;5067500;28;20096;-47
2023/02/09 12:14:51;;;;;;;5.50;3.55;;;;;;;;;;5069496;28;20024;-43
2023/02/09 12:17:28;;;;;;;5.40;4.00;;;;;;;;;;5068376;28;20040;-43
2023/02/09 12:19:57;;;;;;;6.95;4.00;;;;;;;;;;5070859;28;20521;-43
2023/02/09 12:22:35;;;;;;;6.47;3.92;;;;;;;;;;5059077;28;20025;-43
2023/02/09 12:25:12;;;;;;;6.40;3.90;;;;;;;;;;5061657;28;20037;-43
2023/02/09 12:27:42;;;;;;;6.70;3.90;;;;;;;;;;5068797;28;20086;-44
2023/02/09 12:30:27;;;;;;;5.50;3.80;;;;;;;;;;5070626;28;20381;-44
2023/02/09 12:33:13;;;;;;;5.82;3.72;;;;;;;;;;5064237;28;20040;-43
2023/02/09 12:35:39;;;;;;;4.97;3.88;;;;;;;;;;5060272;28;20024;-45
2023/02/09 12:38:16;;;;;;;4.80;3.58;;;;;;;;;;5070134;28;20020;-43
2023/02/09 12:40:42;;;;;;;4.68;3.65;;;;;;;;;;5069794;28;20473;-43
2023/02/09 12:43:25;;;;;;;4.72;3.35;;;;;;;;;;5060447;28;20111;-44
2023/02/09 12:46:11;;;;;;;6.10;3.95;;;;;;;;;;5054095;28;20382;-43
2023/02/09 12:48:47;;;;;;;5.50;3.97;;;;;;;;;;5050996;28;20094;-43
2023/02/09 12:51:32;;;;;;;7.53;4.82;;;;;;;;;;5069743;28;20388;-43
2023/02/09 12:53:58;;;;;;;6.32;3.55;;;;;;;;;;5068318;28;20032;-42
2023/02/09 12:56:31;;;;;;;6.55;3.83;;;;;;;;;;5067153;28;20058;-43
2023/02/09 12:59:13;;;;;;;6.05;4.05;;;;;;;;;;5064450;28;20090;-43
2023/02/09 13:01:58;;;;;;;5.43;3.83;;;;;;;;;;5066569;28;20047;-43
2023/02/09 13:04:24;;;;;;;6.05;3.95;;;;;;;;;;5070372;28;20131;-41
2023/02/09 13:06:54;;;;;;;8.88;3.75;;;;;;;;;;5063080;28;20029;-44
2023/02/09 13:09:28;;;;;;;6.28;3.97;;;;;;;;;;5063730;28;20052;-44
2023/02/09 13:12:29;;;;;;;5.60;3.50;;;;;;;;;;5046910;28;20090;-45
2023/02/09 13:14:55;;;;;;;6.57;4.00;;;;;;;;;;4976494;28;20031;-45
2023/02/09 13:17:26;;;;;;;5.40;3.83;;;;;;;;;;5033808;28;20283;-43
2023/02/09 13:20:04;;;;;;;5.72;3.60;;;;;;;;;;5048948;28;20021;-43
2023/02/09 13:22:39;;;;;;;5.28;3.85;;;;;;;;;;5044650;28;20026;-43
2023/02/09 13:25:11;;;;;;;5.93;3.90;;;;;;;;;;5045756;28;20116;-43
2023/02/09 13:27:48;;;;;;;4.80;3.40;;;;;;;;;;5041959;28;20029;-41
2023/02/09 13:30:31;;;;;;;8.43;3.95;;;;;;;;;;5047619;28;20100;-43
2023/02/09 13:33:09;;;;;;;6.15;3.92;;;;;;;;;;5043328;28;20038;-43
2023/02/09 13:35:39;;;;;;;4.68;3.50;;;;;;;;;;5041083;28;20013;-43
2023/02/09 13:38:14;;;;;;;6.35;3.95;;;;;;;;;;5051274;28;20020;-43
2023/02/09 13:40:45;;;;;;;5.20;3.80;;;;;;;;;;5046727;28;20013;-43
2023/02/09 13:43:10;;;;;;;4.43;3.47;;;;;;;;;;5035305;28;20032;-43
2023/02/09 13:45:45;;;;;;;4.53;3.30;;;;;;;;;;5034307;28;20033;-42
2023/02/09 13:48:37;;;;;;;5.78;3.80;;;;;;;;;;5048002;28;20025;-43
2023/02/09 13:51:03;;;;;;;;;;;;;;;;;;5043723;28;20106;-43
2023/02/09 13:53:30;;;;;;;4.78;3.17;;;;;;;;;;5029041;28;19904;-43
2023/02/09 13:55:58;;;;;;;5.22;3.75;;;;;;;;;;5053674;28;20020;-43
2023/02/09 13:58:33;;;;;;;4.25;2.78;;;;;;;;;;5051826;28;20363;-41
2023/02/09 14:01:04;;;;;;;5.45;3.70;;;;;;;;;;5043953;28;20033;-43
2023/02/09 14:03:32;;;;;;;6.93;3.80;;;;;;;;;;5046313;28;20037;-43
2023/02/09 14:06:01;;;;;;;7.32;3.13;;;;;;;;;;5047553;28;20025;-43
2023/02/09 14:08:29;;;;;;;4.03;3.20;;;;;;;;;;5052459;28;20087;-44
2023/02/09 14:10:58;;;;;;;5.25;3.83;;;;;;;;;;5055107;28;20106;-43
2023/02/09 14:13:27;;;;;;;6.43;3.90;;;;;;;;;;5047560;28;20037;-43
2023/02/09 14:16:06;;;;;;;5.07;3.20;;;;;;;;;;5047395;28;20496;-43
2023/02/09 14:18:32;;;;;;;5.22;3.83;;;;;;;;;;5045138;28;20025;-43
2023/02/09 14:21:18;;;;;;;6.35;3.35;;;;;;;;;;5039096;28;20032;-44
2023/02/09 14:23:44;;;;;;;4.82;3.35;;;;;;;;;;5037305;28;20039;-43
2023/02/09 14:26:13;;;;;;;6.88;3.80;;;;;;;;;;5038418;28;20037;-43
2023/02/09 14:28:40;;;;;;;5.93;4.07;;;;;;;;;;5046831;28;20493;-44
2023/02/09 14:31:17;;;;;;;5.18;3.55;;;;;;;;;;5041211;28;20485;-43
2023/02/09 14:33:47;;;;;;;9.68;3.53;;;;;;;;;;5053860;28;20124;-43
2023/02/09 14:36:23;;;;;;;5.15;3.45;;;;;;;;;;5047010;28;20111;-43
2023/02/09 14:38:50;;;;;;;5.10;3.20;;;;;;;;;;5042292;28;20025;-44
2023/02/09 14:41:36;;;;;;;5.57;3.90;;;;;;;;;;5041843;28;20025;-43
2023/02/09 14:44:02;;;;;;;5.00;3.65;;;;;;;;;;5049837;28;20068;-43
2023/02/09 14:46:45;;;;;;;6.93;3.47;;;;;;;;;;5027765;28;20056;-43
2023/02/09 14:49:11;;;;;;;5.28;3.58;;;;;;;;;;5048941;28;20059;-43
2023/02/09 14:51:37;;;;;;;4.78;3.58;;;;;;;;;;5050814;28;20029;-41
2023/02/09 14:54:04;;;;;;;5.18;3.90;;;;;;;;;;5043269;28;20091;-41
2023/02/09 14:56:33;;;;;;;6.43;3.47;;;;;;;;;;5049707;28;20151;-41
2023/02/09 14:58:59;;;;;;;5.38;3.65;;;;;;;;;;5050919;28;20108;-44
2023/02/09 15:01:25;;;;;;;6.35;3.42;;;;;;;;;;5048471;28;20155;-43
2023/02/09 15:03:51;;;;;;;4.75;3.75;;;;;;;;;;5050671;28;20036;-43
2023/02/09 15:06:17;;;;;;;12.50;3.42;;;;;;;;;;5044178;28;20029;-44